Time;durP1;ratioP1;P1;durP2;ratioP2;P2;SDS_P1;SDS_P2;PMS_P1;PMS_P2;Temp;Humidity;BMP_temperature;BMP_pressure;BME280_temperature;BME280_humidity;BME280_pressure;Samples;Min_cycle;Max_cycle;Signal;HPM_P1;HPM_P2
2024/01/22 07:35:11;;;;;;;7.53;3.20;;;11.80;99.90;13.10;100271.00;;;;6327526;22;20205;-70
2024/01/22 07:38:13;;;;;;;1.70;1.60;;;11.80;99.90;12.70;100211.00;;;;6206788;22;1863214;-70
2024/01/22 07:41:05;;;;;;;3.97;1.33;;;11.70;99.90;12.90;100202.00;;;;6251195;22;20210;-70
2024/01/22 07:43:31;;;;;;;3.43;1.83;;;11.70;99.90;13.00;100299.00;;;;6274780;22;20198;-70
2024/01/22 07:46:14;;;;;;;7.10;2.10;;;11.70;99.90;12.30;100296.00;;;;6250716;22;20527;-70
2024/01/22 07:48:40;;;;;;;15.70;4.40;;;11.70;99.90;13.00;100307.00;;;;6252175;22;20158;-71
2024/01/22 07:51:24;;;;;;;22.90;4.57;;;11.70;99.90;12.80;100313.00;;;;6276645;22;20234;-70
2024/01/22 07:54:18;;;;;;;16.03;3.70;;;11.60;99.90;12.70;100330.00;;;;6276154;22;20167;-70
2024/01/22 07:57:06;;;;;;;11.00;2.60;;;11.50;99.90;12.60;100324.00;;;;6276072;22;20145;-70
2024/01/22 07:59:31;;;;;;;5.20;2.50;;;11.50;99.90;12.80;100348.00;;;;6276458;22;20155;-70
2024/01/22 08:02:08;;;;;;;19.53;2.57;;;11.50;99.90;12.60;100271.00;;;;6250536;22;20543;-70
2024/01/22 08:04:57;;;;;;;19.57;5.63;;;11.40;99.90;12.40;100333.00;;;;6276319;22;20249;-70
2024/01/22 08:07:35;;;;;;;2.57;2.47;;;11.50;99.90;12.80;100325.00;;;;6228945;22;20541;-70
2024/01/22 08:10:21;;;;;;;37.27;6.40;;;11.40;99.90;12.70;100266.00;;;;6251395;22;20155;-70
2024/01/22 08:13:07;;;;;;;1.63;1.53;;;11.50;99.90;13.20;100303.00;;;;6275723;22;20177;-69
2024/01/22 08:15:58;;;;;;;1.60;1.20;;;11.60;99.90;13.30;100309.00;;;;6275479;22;20627;-70
2024/01/22 08:18:44;;;;;;;1.07;0.97;;;11.60;99.90;13.20;100304.00;;;;6276531;22;20157;-70
2024/01/22 08:21:22;;;;;;;1.40;1.30;;;11.60;99.90;14.40;100282.00;;;;6254420;22;20164;-70
2024/01/22 08:24:06;;;;;;;12.03;2.07;;;12.00;99.90;13.50;100269.00;;;;6275574;22;20154;-70
2024/01/22 08:26:34;;;;;;;7.70;7.40;;;11.80;99.90;14.10;100296.00;;;;6276254;22;20151;-68
2024/01/22 08:29:28;;;;;;;7.07;2.23;;;11.90;99.90;14.50;100237.00;;;;6250623;22;20204;-69
2024/01/22 08:31:53;;;;;;;2.53;2.33;;;12.10;99.90;14.30;100225.00;;;;6276056;22;20171;-70
2024/01/22 08:34:38;;;;;;;1.33;1.33;;;12.10;99.90;14.50;100228.00;;;;6276250;22;20153;-67
2024/01/22 08:37:05;;;;;;;21.77;4.83;;;12.10;99.90;14.10;100270.00;;;;6275672;22;20170;-70
2024/01/22 08:39:45;;;;;;;1.90;1.80;;;12.10;99.90;13.80;100283.00;;;;6277658;22;20179;-70
2024/01/22 08:42:18;;;;;;;2.30;2.20;;;11.90;99.90;13.30;100306.00;;;;6250300;22;20190;-70
2024/01/22 08:44:44;;;;;;;8.50;2.53;;;11.70;99.90;13.10;100299.00;;;;6277277;22;20171;-70
2024/01/22 08:47:10;;;;;;;12.00;2.50;;;11.60;99.90;13.30;100254.00;;;;6275953;22;20156;-70
2024/01/22 08:49:36;;;;;;;1.17;1.17;;;11.60;99.90;13.80;100310.00;;;;6276277;22;20140;-70
2024/01/22 08:52:29;;;;;;;4.70;1.67;;;11.80;99.90;14.40;100308.00;;;;6276771;22;20213;-68
2024/01/22 08:55:05;;;;;;;1.53;1.43;;;11.80;99.90;14.40;100273.00;;;;6276153;22;20149;-68
2024/01/22 08:57:36;;;;;;;6.13;3.03;;;11.80;99.90;12.80;100324.00;;;;6275589;22;20229;-71
2024/01/22 09:00:21;;;;;;;1.43;1.33;;;11.60;99.90;13.60;100337.00;;;;6276234;22;20143;-71
2024/01/22 09:02:47;;;;;;;5.20;2.80;;;11.60;99.90;13.80;100326.00;;;;6275619;22;20147;-70
2024/01/22 09:05:49;;;;;;;0.70;0.70;;;11.70;99.90;13.20;100357.00;;;;6275445;22;20591;-71
2024/01/22 09:08:15;;;;;;;13.77;3.63;;;11.60;99.90;11.90;100314.00;;;;6276927;22;20191;-70
2024/01/22 09:10:41;;;;;;;14.13;4.07;;;11.20;99.90;12.50;100383.00;;;;6275260;22;20148;-70
2024/01/22 09:13:08;;;;;;;16.07;4.93;;;11.20;99.90;12.20;100382.00;;;;6250087;22;20184;-71
2024/01/22 09:15:34;;;;;;;11.07;3.33;;;11.30;99.90;12.50;100397.00;;;;6275076;22;20213;-71
2024/01/22 09:18:01;;;;;;;18.07;4.63;;;11.20;99.90;12.80;100391.00;;;;6274611;22;20147;-69
2024/01/22 09:20:27;;;;;;;10.47;2.77;;;11.30;99.90;12.60;100399.00;;;;6277465;22;20176;-69
2024/01/22 09:22:56;;;;;;;2.93;2.10;;;11.30;99.90;12.50;100401.00;;;;6301423;22;20535;-69
2024/01/22 09:25:22;;;;;;;2.37;2.17;;;11.30;99.90;13.00;100403.00;;;;6249863;22;20156;-69
2024/01/22 09:27:52;;;;;;;12.33;4.20;;;11.30;99.90;13.80;100341.00;;;;6275405;22;20171;-69
2024/01/22 09:30:21;;;;;;;1.23;1.00;;;11.50;99.90;13.50;100383.00;;;;6275466;22;20212;-69
2024/01/22 09:33:05;;;;;;;8.07;3.03;;;11.60;99.90;12.40;100392.00;;;;6274387;22;20190;-69
2024/01/22 09:35:33;;;;;;;19.73;3.93;;;11.40;99.90;12.40;100405.00;;;;6275119;22;20212;-69
2024/01/22 09:38:01;;;;;;;9.07;4.63;;;11.40;99.90;12.50;100417.00;;;;6275316;22;20171;-69
2024/01/22 09:40:34;;;;;;;3.30;1.63;;;11.30;99.90;12.70;100402.00;;;;6276333;22;20140;-69
2024/01/22 09:43:07;;;;;;;7.30;3.30;;;11.20;99.90;12.50;100380.00;;;;6275305;22;20197;-69
2024/01/22 09:45:34;;;;;;;2.70;1.10;;;11.20;99.90;12.80;100445.00;;;;6275421;22;20227;-69
2024/01/22 09:48:01;;;;;;;12.30;4.27;;;11.30;99.90;12.60;100448.00;;;;6275493;22;20153;-69
2024/01/22 09:50:27;;;;;;;3.20;2.90;;;11.30;99.90;12.40;100436.00;;;;6274097;22;20164;-69
2024/01/22 09:52:54;;;;;;;14.33;3.70;;;11.30;99.90;12.70;100448.00;;;;6275044;22;20182;-69
2024/01/22 09:55:25;;;;;;;0.80;0.80;;;11.30;99.90;13.00;100454.00;;;;6274783;22;20160;-69
2024/01/22 09:57:53;;;;;;;12.10;4.00;;;11.40;99.90;12.60;100459.00;;;;6274990;22;20241;-69
2024/01/22 10:00:26;;;;;;;6.03;2.30;;;11.40;99.90;12.50;100470.00;;;;6275605;22;20452;-69
2024/01/22 10:02:56;;;;;;;4.13;1.90;;;11.40;99.90;13.20;100473.00;;;;6275338;22;20482;-69
2024/01/22 10:05:22;;;;;;;8.17;2.57;;;11.50;99.90;12.40;100476.00;;;;6275251;22;20175;-69
2024/01/22 10:07:48;;;;;;;2.53;2.30;;;11.40;99.90;13.00;100481.00;;;;6301177;22;20153;-69
2024/01/22 10:10:16;;;;;;;18.97;5.20;;;11.50;99.90;12.60;100430.00;;;;6249272;22;20475;-69
2024/01/22 10:13:08;;;;;;;0.60;0.60;;;11.40;99.90;13.00;100406.00;;;;6275648;22;20255;-69
2024/01/22 10:15:36;;;;;;;24.30;5.27;;;11.50;99.90;12.10;100508.00;;;;6274599;22;20564;-69
2024/01/22 10:18:16;;;;;;;7.73;2.57;;;11.40;99.90;12.70;100435.00;;;;6275302;22;20150;-69
2024/01/22 10:20:45;;;;;;;21.80;4.83;;;11.50;99.90;12.60;100503.00;;;;6275275;22;20152;-69
2024/01/22 10:33:27;;;;;;;24.27;6.37;;;11.20;99.90;12.60;100544.00;;;;5106558;27;20624;-68
2024/01/22 10:35:53;;;;;;;4.47;2.97;;;11.40;99.90;13.10;100533.00;;;;5061075;28;20176;-68
2024/01/22 10:38:20;;;;;;;23.23;4.57;;;11.40;99.90;12.50;100517.00;;;;5086658;28;20595;-68
2024/01/22 10:40:47;;;;;;;6.70;2.20;;;11.40;99.90;13.30;100525.00;;;;5061983;28;20187;-68
2024/01/22 10:43:26;;;;;;;14.27;4.57;;;11.60;99.90;13.10;100524.00;;;;5066767;28;20212;-68
2024/01/22 10:45:54;;;;;;;13.97;4.50;;;11.60;99.90;12.10;100505.00;;;;5081081;28;20217;-68
2024/01/22 10:48:23;;;;;;;8.70;1.87;;;11.50;99.90;12.40;100511.00;;;;5077074;28;20190;-68
2024/01/22 10:50:51;;;;;;;6.70;3.80;;;11.40;99.90;12.50;100514.00;;;;5074422;28;20523;-68
2024/01/22 10:53:19;;;;;;;7.40;3.17;;;11.40;99.90;12.50;100505.00;;;;5080825;28;20213;-68
2024/01/22 10:56:14;;;;;;;18.03;4.40;;;11.40;99.90;12.50;100520.00;;;;5077691;28;20195;-69
2024/01/22 10:58:45;;;;;;;19.67;4.17;;;11.30;99.90;12.30;100519.00;;;;5069665;28;20671;-67
2024/01/22 11:01:16;;;;;;;9.97;4.33;;;11.30;99.90;12.80;100528.00;;;;5087572;28;20252;-64
2024/01/22 11:03:56;;;;;;;11.57;4.67;;;11.40;99.90;13.00;100499.00;;;;5058665;28;20187;-67
2024/01/22 11:06:27;;;;;;;14.63;3.87;;;11.50;99.90;12.60;100530.00;;;;5065248;28;20203;-67
2024/01/22 11:09:04;;;;;;;8.97;3.80;;;11.40;99.90;12.90;100536.00;;;;5063006;28;20192;-67
2024/01/22 11:11:32;;;;;;;20.60;4.60;;;11.50;99.90;12.50;100539.00;;;;5061950;28;20680;-68
2024/01/22 11:14:03;;;;;;;20.27;5.67;;;11.40;99.90;12.60;100524.00;;;;5063543;28;20565;-67
2024/01/22 11:16:31;;;;;;;20.00;5.03;;;11.50;99.90;13.00;100537.00;;;;5063501;28;20176;-67
2024/01/22 11:19:00;;;;;;;7.00;4.50;;;11.70;99.90;12.30;100544.00;;;;5068121;28;20189;-69
2024/01/22 11:21:42;;;;;;;16.77;4.03;;;11.60;99.90;13.00;100549.00;;;;5069771;28;20211;-69
2024/01/22 11:24:19;;;;;;;14.87;3.83;;;11.60;99.90;12.40;100551.00;;;;5059305;28;20197;-68
2024/01/22 11:27:06;;;;;;;10.77;4.13;;;11.50;99.90;12.90;100461.00;;;;5064389;28;20187;-69
2024/01/22 11:29:33;;;;;;;13.90;3.50;;;11.60;99.90;12.70;100550.00;;;;5064358;28;20251;-70
2024/01/22 11:32:30;;;;;;;8.87;3.70;;;11.60;99.90;13.60;100570.00;;;;5068159;28;20310;-69
2024/01/22 11:35:00;;;;;;;15.53;5.10;;;11.90;99.90;12.90;100553.00;;;;5069064;28;20175;-69
2024/01/22 11:37:37;;;;;;;16.07;3.63;;;11.80;99.90;13.40;100579.00;;;;5064938;28;20237;-69
2024/01/22 11:40:11;;;;;;;6.47;1.93;;;11.80;99.90;12.80;100566.00;;;;5070709;28;20195;-69
2024/01/22 11:42:37;;;;;;;9.67;3.30;;;11.70;99.90;12.40;100559.00;;;;5083125;28;20191;-69
2024/01/22 11:45:14;;;;;;;7.67;1.83;;;11.60;99.90;13.00;100559.00;;;;5055430;28;20207;-69
2024/01/22 11:47:41;;;;;;;15.27;4.10;;;11.70;99.90;12.80;100513.00;;;;5057403;28;20217;-69
2024/01/22 11:50:08;;;;;;;11.77;2.87;;;11.70;99.90;12.70;100552.00;;;;5056000;28;20707;-69
2024/01/22 11:52:37;;;;;;;4.47;1.77;;;11.80;99.90;12.30;100611.00;;;;5054971;28;20199;-70
2024/01/22 11:55:08;;;;;;;14.10;3.57;;;11.70;99.90;12.50;100603.00;;;;5054169;28;20183;-70
2024/01/22 11:57:36;;;;;;;12.53;2.73;;;11.70;99.90;12.60;100625.00;;;;5056280;28;20181;-70
2024/01/22 12:00:12;;;;;;;15.20;2.47;;;11.80;99.90;13.10;100617.00;;;;5052906;28;20224;-70
2024/01/22 12:02:45;;;;;;;9.07;2.10;;;11.90;99.90;13.70;100614.00;;;;5047555;28;20284;-69
2024/01/22 12:05:18;;;;;;;12.20;2.73;;;12.00;99.90;13.00;100622.00;;;;5060826;28;20185;-69
2024/01/22 12:07:54;;;;;;;6.83;2.33;;;12.20;99.90;13.00;100621.00;;;;5082586;28;20274;-70
2024/01/22 12:10:28;;;;;;;11.77;3.50;;;12.00;99.90;13.30;100632.00;;;;5061398;28;20217;-70
2024/01/22 12:13:08;;;;;;;6.33;2.50;;;11.90;99.90;13.40;100630.00;;;;5046596;28;20220;-70
2024/01/22 12:15:34;;;;;;;3.87;1.20;;;11.90;99.90;13.30;100667.00;;;;5061132;28;20543;-69
2024/01/22 12:18:02;;;;;;;5.17;2.27;;;11.80;99.90;13.00;100660.00;;;;5074171;28;20191;-69
2024/01/22 12:20:30;;;;;;;7.33;1.90;;;11.70;99.90;13.10;100604.00;;;;5057893;28;20181;-69
2024/01/22 12:23:01;;;;;;;5.90;2.67;;;11.70;99.90;13.30;100669.00;;;;5044061;28;20196;-69
2024/01/22 12:25:38;;;;;;;6.60;1.80;;;11.80;99.90;13.00;100648.00;;;;5043453;28;20248;-69
2024/01/22 12:28:11;;;;;;;10.27;2.83;;;11.70;99.90;13.60;100680.00;;;;5062695;28;20184;-70
2024/01/22 12:30:38;;;;;;;7.20;1.87;;;11.80;99.90;13.30;100684.00;;;;5067563;28;20300;-69
2024/01/22 12:33:04;;;;;;;13.13;3.23;;;11.90;99.90;13.30;100689.00;;;;5067549;28;20676;-69
2024/01/22 12:35:30;;;;;;;5.77;2.07;;;11.80;99.90;13.10;100663.00;;;;5069435;28;20528;-69
2024/01/22 12:37:56;;;;;;;10.53;2.60;;;11.80;99.90;12.80;100698.00;;;;5050373;28;20190;-69
2024/01/22 12:40:23;;;;;;;6.97;1.40;;;11.80;99.90;13.20;100695.00;;;;5073936;28;20647;-69
2024/01/22 12:42:57;;;;;;;5.87;2.40;;;11.80;99.90;12.90;100699.00;;;;5059358;28;20207;-70
2024/01/22 12:45:24;;;;;;;6.87;1.83;;;11.80;99.90;12.90;100713.00;;;;5059474;28;20235;-69
2024/01/22 12:48:11;;;;;;;5.10;1.27;;;11.80;99.90;12.50;100656.00;;;;5061968;28;20237;-70
2024/01/22 12:50:37;;;;;;;12.10;2.23;;;11.70;99.90;13.40;100715.00;;;;5075869;28;20190;-70
2024/01/22 12:53:03;;;;;;;0.73;0.73;;;11.90;99.90;14.00;100714.00;;;;5071235;28;20546;-70
2024/01/22 12:55:29;;;;;;;5.20;1.87;;;11.90;99.90;13.30;100710.00;;;;5064203;28;20274;-70
2024/01/22 12:57:55;;;;;;;11.40;2.53;;;11.80;99.90;12.70;100723.00;;;;5049746;28;20268;-70
2024/01/22 13:00:21;;;;;;;12.23;1.67;;;11.70;99.90;13.40;100684.00;;;;5044788;28;20185;-70
2024/01/22 13:02:47;;;;;;;5.60;2.50;;;11.80;99.90;12.90;100726.00;;;;5072180;28;20200;-70
2024/01/22 13:05:13;;;;;;;4.37;1.03;;;11.80;99.90;13.30;100735.00;;;;5054441;28;20202;-70
2024/01/22 13:07:39;;;;;;;12.90;2.73;;;11.80;99.90;12.60;100675.00;;;;5038186;28;20257;-70
2024/01/22 13:10:05;;;;;;;8.73;2.60;;;11.70;99.90;13.20;100735.00;;;;5056463;28;20181;-69
2024/01/22 13:12:36;;;;;;;10.03;3.17;;;11.70;99.90;13.00;100673.00;;;;5036082;28;20207;-70
2024/01/22 13:15:02;;;;;;;5.93;2.17;;;11.80;99.90;13.00;100727.00;;;;5053613;28;20181;-70
2024/01/22 13:17:31;;;;;;;10.80;2.47;;;11.70;99.90;13.10;100731.00;;;;5047866;28;20222;-73
2024/01/22 13:19:57;;;;;;;10.00;1.60;;;11.70;99.90;13.20;100727.00;;;;5037586;28;20279;-73
2024/01/22 13:22:23;;;;;;;13.90;6.27;;;11.80;99.90;13.30;100717.00;;;;5053162;28;20216;-73
2024/01/22 13:24:49;;;;;;;2.43;0.87;;;11.80;99.90;13.20;100746.00;;;;5036155;28;20632;-73
2024/01/22 13:27:14;;;;;;;5.30;2.53;;;11.80;99.90;13.40;100729.00;;;;5064094;28;20189;-73
2024/01/22 13:29:43;;;;;;;3.40;1.33;;;11.80;99.90;12.90;100724.00;;;;5065227;28;20189;-73
2024/01/22 13:32:12;;;;;;;3.70;0.97;;;11.80;99.90;13.10;100719.00;;;;5060394;28;20695;-73
2024/01/22 13:34:38;;;;;;;18.40;3.17;;;11.70;99.90;12.70;100723.00;;;;5079324;28;20601;-73
2024/01/22 13:37:04;;;;;;;3.30;0.60;;;11.50;99.90;13.30;100734.00;;;;5062931;28;20239;-73
2024/01/22 13:39:32;;;;;;;9.47;2.70;;;11.60;99.90;12.90;100724.00;;;;5075830;28;20639;-73
2024/01/22 13:41:58;;;;;;;3.13;1.23;;;11.50;99.90;12.40;100734.00;;;;5057929;28;20190;-73
2024/01/22 13:44:24;;;;;;;6.03;1.30;;;11.50;99.90;13.00;100733.00;;;;5049067;28;20206;-73
2024/01/22 13:46:50;;;;;;;2.60;1.07;;;11.50;99.90;13.30;100737.00;;;;5061427;28;20187;-73
2024/01/22 13:49:16;;;;;;;7.00;2.07;;;11.60;99.90;13.50;100743.00;;;;5044746;28;20187;-73
2024/01/22 13:51:48;;;;;;;9.87;3.17;;;11.70;99.90;13.30;100751.00;;;;5070056;28;20296;-73
2024/01/22 13:54:14;;;;;;;15.03;1.70;;;11.60;99.90;13.20;100743.00;;;;5052823;28;20540;-73
2024/01/22 13:56:40;;;;;;;6.17;1.97;;;11.60;99.90;13.50;100734.00;;;;5033425;28;20192;-75
2024/01/22 13:59:07;;;;;;;1.80;1.23;;;11.60;99.90;13.20;100652.00;;;;5050498;28;20642;-75
2024/01/22 14:01:33;;;;;;;7.03;1.27;;;11.60;99.90;12.70;100733.00;;;;5038508;28;20208;-75
2024/01/22 14:04:03;;;;;;;8.57;3.17;;;11.50;99.90;13.50;100730.00;;;;5035417;28;20268;-74
2024/01/22 14:06:29;;;;;;;3.70;1.03;;;11.60;99.90;13.50;100747.00;;;;5035461;28;20286;-75
2024/01/22 14:08:56;;;;;;;8.93;2.40;;;11.70;99.90;12.80;100715.00;;;;5064575;28;20716;-75
2024/01/22 14:11:22;;;;;;;13.17;2.37;;;11.60;99.90;12.70;100673.00;;;;5073040;28;20227;-75
2024/01/22 14:13:48;;;;;;;14.60;2.03;;;11.50;99.90;13.00;100742.00;;;;5073548;28;20219;-76
2024/01/22 14:16:16;;;;;;;3.93;1.23;;;11.50;99.90;13.00;100730.00;;;;5072313;28;20232;-76
2024/01/22 14:18:43;;;;;;;2.20;0.70;;;11.60;99.90;13.30;100715.00;;;;5057508;28;20190;-76
2024/01/22 14:21:09;;;;;;;15.60;2.30;;;11.60;99.90;13.10;100730.00;;;;5072632;28;20186;-76
2024/01/22 14:23:35;;;;;;;4.23;1.50;;;11.60;99.90;13.20;100726.00;;;;5047805;28;20189;-76
2024/01/22 14:26:01;;;;;;;11.33;2.43;;;11.60;99.90;13.70;100745.00;;;;5076479;28;20646;-76
2024/01/22 14:28:28;;;;;;;9.17;1.83;;;11.70;99.90;12.80;100713.00;;;;5078441;28;20659;-76
2024/01/22 14:30:54;;;;;;;2.70;1.73;;;11.50;99.90;12.60;100750.00;;;;5064075;28;20668;-76
2024/01/22 14:33:20;;;;;;;6.43;2.37;;;11.40;99.90;13.30;100758.00;;;;5028527;28;20243;-76
2024/01/22 14:35:48;;;;;;;1.73;1.57;;;11.50;99.90;12.90;100759.00;;;;5050292;28;20180;-76
2024/01/22 14:38:15;;;;;;;6.13;1.67;;;11.40;99.90;12.80;100767.00;;;;5059713;28;20191;-76
2024/01/22 14:40:40;;;;;;;12.73;2.37;;;11.50;99.90;13.00;100760.00;;;;5051361;28;20190;-76
2024/01/22 14:43:06;;;;;;;11.90;3.97;;;11.50;99.90;13.20;100755.00;;;;5053899;28;20191;-76
2024/01/22 14:45:32;;;;;;;11.53;1.43;;;11.60;99.90;12.70;100778.00;;;;5047170;28;20637;-76
2024/01/22 14:47:58;;;;;;;9.07;2.23;;;11.60;99.90;13.10;100783.00;;;;5057987;28;20192;-76
2024/01/22 14:50:25;;;;;;;4.33;1.80;;;11.50;99.90;13.50;100794.00;;;;5056504;28;20655;-76
2024/01/22 14:52:54;;;;;;;4.23;1.33;;;11.60;99.90;13.30;100631.00;;;;5043730;28;20204;-76
2024/01/22 14:55:23;;;;;;;1.93;1.17;;;11.60;99.90;13.50;100817.00;;;;5059042;28;20188;-76
2024/01/22 14:57:49;;;;;;;11.83;2.13;;;11.60;99.90;12.40;100823.00;;;;5053146;28;20198;-76
2024/01/22 15:00:16;;;;;;;7.70;1.67;;;11.30;99.90;13.30;100761.00;;;;5049368;28;20679;-76
2024/01/22 15:02:42;;;;;;;10.70;2.20;;;11.40;99.90;12.80;100827.00;;;;5053026;28;20185;-76
2024/01/22 15:05:23;;;;;;;11.33;2.87;;;11.40;99.90;12.40;100789.00;;;;5026877;28;20242;-76
2024/01/22 15:08:08;;;;;;;3.37;1.37;;;11.20;99.90;12.00;100809.00;;;;5075158;28;20246;-76
2024/01/22 15:10:35;;;;;;;2.50;1.63;;;11.10;99.90;12.40;100836.00;;;;5039604;28;20621;-74
2024/01/22 15:13:02;;;;;;;4.07;1.90;;;11.20;99.90;11.80;100832.00;;;;5035905;28;20558;-74
2024/01/22 15:15:43;;;;;;;3.37;1.17;;;11.00;99.90;12.20;100834.00;;;;5055068;28;20667;-74
2024/01/22 15:18:09;;;;;;;7.03;1.90;;;11.10;99.90;12.10;100824.00;;;;5063505;28;20197;-75
2024/01/22 15:20:35;;;;;;;15.30;2.90;;;11.00;99.90;12.80;100852.00;;;;5057845;28;20187;-74
2024/01/22 15:23:01;;;;;;;3.40;1.10;;;11.10;99.90;12.40;100783.00;;;;5034777;28;20277;-74
2024/01/22 15:25:27;;;;;;;1.40;1.17;;;10.90;99.90;12.70;100836.00;;;;5054465;28;20191;-74
2024/01/22 15:27:53;;;;;;;8.10;1.37;;;10.90;99.90;12.30;100860.00;;;;5083328;28;20216;-75
2024/01/22 15:30:19;;;;;;;10.70;0.90;;;10.90;99.90;12.70;100827.00;;;;5043873;28;20188;-75
2024/01/22 15:32:45;;;;;;;1.40;0.77;;;10.90;99.90;11.90;100861.00;;;;5044748;28;20242;-76
2024/01/22 15:35:12;;;;;;;5.57;1.53;;;10.70;99.90;12.70;100845.00;;;;5027632;28;20196;-75
2024/01/22 15:37:38;;;;;;;1.27;1.03;;;10.80;99.90;12.30;100803.00;;;;5044637;28;20188;-75
2024/01/22 15:40:05;;;;;;;8.23;1.53;;;10.80;99.90;11.80;100854.00;;;;5080411;28;20184;-75
2024/01/22 15:42:34;;;;;;;0.70;0.70;;;10.80;99.90;12.50;100882.00;;;;5045545;28;20281;-75
2024/01/22 15:45:15;;;;;;;6.17;1.87;;;10.80;99.90;12.50;100880.00;;;;5037722;28;20263;-78
2024/01/22 15:47:46;;;;;;;5.20;3.37;;;10.80;99.90;12.10;100887.00;;;;5034700;28;20201;-75
2024/01/22 15:50:12;;;;;;;6.93;1.47;;;10.80;99.90;12.40;100893.00;;;;5054898;28;20187;-76
2024/01/22 15:52:38;;;;;;;4.83;0.80;;;10.80;99.90;12.20;100882.00;;;;5054187;28;20343;-77
2024/01/22 15:55:07;;;;;;;1.37;1.27;;;10.70;99.90;12.10;100872.00;;;;5027695;28;20273;-74
2024/01/22 15:57:33;;;;;;;5.40;1.17;;;10.70;99.90;12.20;100813.00;;;;5078488;28;20194;-73
2024/01/22 15:59:59;;;;;;;3.57;2.00;;;10.70;99.90;11.90;100828.00;;;;5041375;28;20541;-73
2024/01/22 16:02:25;;;;;;;3.40;1.33;;;10.60;99.90;11.90;100884.00;;;;5064837;28;20640;-74
2024/01/22 16:04:51;;;;;;;8.07;2.53;;;10.60;99.90;11.80;100887.00;;;;5060404;28;20250;-74
2024/01/22 16:07:17;;;;;;;0.30;0.30;;;10.50;99.90;12.50;100900.00;;;;5063205;28;20187;-73
2024/01/22 16:09:43;;;;;;;6.23;1.57;;;10.60;99.90;12.00;100920.00;;;;5063313;28;20213;-72
2024/01/22 16:12:09;;;;;;;2.17;0.93;;;10.60;99.90;11.90;100920.00;;;;5075495;28;20201;-70
2024/01/22 16:14:35;;;;;;;4.40;2.03;;;10.50;99.90;12.00;100924.00;;;;5062119;28;20182;-69
2024/01/22 16:17:01;;;;;;;7.87;3.07;;;10.60;99.90;12.20;100931.00;;;;5066927;28;20184;-70
2024/01/22 16:19:27;;;;;;;9.37;2.00;;;10.60;99.90;12.40;100932.00;;;;5061899;28;20649;-66
2024/01/22 16:21:54;;;;;;;0.93;0.80;;;10.60;99.90;11.90;100933.00;;;;5083445;28;20236;-68
2024/01/22 16:24:20;;;;;;;8.27;4.10;;;10.60;99.90;11.70;100943.00;;;;5060469;28;20263;-69
2024/01/22 16:26:47;;;;;;;6.50;1.67;;;10.60;99.90;11.80;100946.00;;;;5061432;28;20187;-69
2024/01/22 16:29:14;;;;;;;0.93;0.93;;;10.50;99.90;11.80;100925.00;;;;5056875;28;20185;-69
2024/01/22 16:31:43;;;;;;;4.43;2.43;;;10.40;99.90;11.50;100939.00;;;;5042680;28;20213;-69
2024/01/22 16:34:09;;;;;;;4.23;1.17;;;10.40;99.90;11.40;100944.00;;;;5074716;28;20197;-69
2024/01/22 16:36:40;;;;;;;7.57;2.33;;;10.30;99.90;11.40;100955.00;;;;5061136;28;20201;-69
2024/01/22 16:39:10;;;;;;;6.00;1.87;;;10.30;99.90;11.40;100930.00;;;;5061193;28;20196;-69
2024/01/22 16:41:39;;;;;;;7.97;3.17;;;10.20;99.90;11.80;100962.00;;;;5038159;28;20248;-69
2024/01/22 16:44:06;;;;;;;20.77;2.87;;;10.30;99.90;12.10;100978.00;;;;5050224;28;20334;-69
2024/01/22 16:46:45;;;;;;;4.23;1.00;;;10.50;99.90;12.60;100991.00;;;;5066348;28;20582;-70
2024/01/22 16:49:11;;;;;;;14.97;4.30;;;10.50;99.90;11.60;100963.00;;;;5052086;28;20187;-69
2024/01/22 16:51:37;;;;;;;13.40;3.30;;;10.40;99.90;11.50;100982.00;;;;5052793;28;20989;-69
2024/01/22 16:54:03;;;;;;;1.50;1.10;;;10.20;99.90;11.70;100990.00;;;;5036887;28;20182;-69
2024/01/22 16:56:29;;;;;;;10.93;2.93;;;10.30;99.90;11.70;100997.00;;;;5058571;28;20198;-69
2024/01/22 16:58:57;;;;;;;2.13;1.30;;;10.30;99.90;11.60;101001.00;;;;5088670;28;20189;-70
2024/01/22 17:01:24;;;;;;;4.37;1.90;;;10.30;99.90;11.70;101006.00;;;;5065965;28;20196;-70
2024/01/22 17:03:50;;;;;;;7.63;2.30;;;10.20;99.90;11.00;100996.00;;;;5051052;28;20191;-70
2024/01/22 17:06:30;;;;;;;4.77;2.93;;;10.20;99.90;11.70;101007.00;;;;5078751;28;20519;-70
2024/01/22 17:08:56;;;;;;;0.30;0.30;;;10.20;99.90;11.40;100990.00;;;;5058091;28;20212;-70
2024/01/22 17:11:22;;;;;;;10.63;1.77;;;10.10;99.90;12.10;101011.00;;;;5066265;28;20194;-70
2024/01/22 17:13:48;;;;;;;10.80;0.53;;;10.20;99.90;11.90;101007.00;;;;5045087;28;20224;-71
2024/01/22 17:16:15;;;;;;;6.50;1.20;;;10.20;99.90;11.40;101015.00;;;;5077890;28;20186;-70
2024/01/22 17:18:41;;;;;;;5.10;1.90;;;10.10;99.90;11.60;101007.00;;;;5063248;28;20658;-70
2024/01/22 17:21:08;;;;;;;0.77;0.70;;;10.10;99.90;11.10;101013.00;;;;5038224;28;20660;-70
2024/01/22 17:23:34;;;;;;;4.60;1.47;;;10.00;99.90;11.10;101021.00;;;;5066830;28;20185;-70
2024/01/22 17:26:09;;;;;;;9.47;2.80;;;10.00;99.90;11.00;101033.00;;;;5082129;28;20594;-70
2024/01/22 17:28:36;;;;;;;7.57;3.07;;;10.00;99.90;11.50;101043.00;;;;5046618;28;20177;-70
2024/01/22 17:31:03;;;;;;;3.13;2.03;;;10.10;99.90;11.60;101069.00;;;;5051080;28;20199;-70
2024/01/22 17:33:29;;;;;;;16.97;1.83;;;10.10;99.90;11.10;100999.00;;;;5067885;28;20219;-70
2024/01/22 17:35:55;;;;;;;6.47;2.23;;;10.00;99.90;11.20;101069.00;;;;5046082;28;20649;-70
2024/01/22 17:38:21;;;;;;;5.73;4.03;;;9.90;99.90;11.30;101069.00;;;;5043642;28;20191;-69
2024/01/22 17:40:47;;;;;;;7.30;2.90;;;10.10;99.90;11.40;101045.00;;;;5047241;28;20172;-70
2024/01/22 17:43:13;;;;;;;8.87;3.27;;;10.10;99.90;11.50;101004.00;;;;5078439;28;20193;-73
2024/01/22 17:45:39;;;;;;;12.37;3.23;;;10.00;99.90;11.60;101060.00;;;;5045023;28;20193;-66
2024/01/22 17:48:06;;;;;;;3.00;1.03;;;10.00;99.90;11.80;101057.00;;;;5038843;28;20588;-71
2024/01/22 17:50:36;;;;;;;26.00;2.73;;;10.10;99.90;11.30;101080.00;;;;5059762;28;20185;-69
2024/01/22 17:53:02;;;;;;;1.93;1.30;;;10.00;99.90;11.40;101011.00;;;;5080847;28;20258;-71
2024/01/22 17:55:32;;;;;;;12.67;4.43;;;9.90;99.90;10.90;101057.00;;;;5064881;28;20186;-71
2024/01/22 17:57:59;;;;;;;4.33;2.10;;;9.80;99.90;12.00;101089.00;;;;5051177;28;20240;-71
2024/01/22 18:00:27;;;;;;;0.87;0.87;;;9.90;99.90;11.30;101099.00;;;;5044644;28;20180;-71
2024/01/22 18:02:54;;;;;;;12.80;4.27;;;9.90;99.90;10.80;101037.00;;;;5034793;28;20181;-71
2024/01/22 18:05:20;;;;;;;4.03;2.80;;;9.70;99.90;11.40;101103.00;;;;5032263;28;20548;-71
2024/01/22 18:07:48;;;;;;;4.77;1.67;;;9.70;99.90;11.10;101107.00;;;;5045484;28;20615;-71
2024/01/22 18:10:16;;;;;;;9.40;2.50;;;9.70;99.90;11.10;101122.00;;;;5049622;28;20217;-71
2024/01/22 18:12:44;;;;;;;10.87;2.83;;;9.70;99.90;10.60;101112.00;;;;5041422;28;20221;-71
2024/01/22 18:15:10;;;;;;;7.53;2.60;;;9.60;99.90;10.90;101082.00;;;;5070658;28;20272;-71
2024/01/22 18:17:36;;;;;;;17.63;2.97;;;9.60;99.90;10.50;101118.00;;;;5058593;28;20735;-70
2024/01/22 18:20:03;;;;;;;8.53;1.73;;;9.60;99.90;10.50;101124.00;;;;5076956;28;20180;-70
2024/01/22 18:22:39;;;;;;;4.17;0.97;;;9.60;99.90;10.50;101131.00;;;;5065684;28;20673;-70
2024/01/22 18:25:08;;;;;;;15.27;3.00;;;9.50;99.90;10.60;101132.00;;;;5042134;28;20216;-70
2024/01/22 18:27:39;;;;;;;2.60;1.70;;;9.60;99.90;10.80;101146.00;;;;5046893;28;20544;-70
2024/01/22 18:30:09;;;;;;;10.53;3.23;;;9.60;99.90;10.60;101142.00;;;;5052158;28;20190;-70
2024/01/22 18:32:43;;;;;;;9.50;2.53;;;9.50;99.90;10.90;101145.00;;;;5052113;28;20222;-70
2024/01/22 18:35:09;;;;;;;0.97;0.90;;;9.60;99.90;10.60;101155.00;;;;5035359;28;20676;-70
2024/01/22 18:37:47;;;;;;;5.10;1.83;;;9.60;99.90;10.90;101170.00;;;;5065355;28;20187;-70
2024/01/22 18:40:13;;;;;;;4.83;1.77;;;9.60;99.90;11.10;101179.00;;;;5054056;28;20182;-71
2024/01/22 18:42:42;;;;;;;1.20;1.17;;;9.60;99.90;11.20;101178.00;;;;5056460;28;20662;-70